Time;durP1;ratioP1;P1;durP2;ratioP2;P2;SDS_P1;SDS_P2;PMS_P1;PMS_P2;Temp;Humidity;BMP_temperature;BMP_pressure;BME280_temperature;BME280_humidity;BME280_pressure;Samples;Min_cycle;Max_cycle;Signal;HPM_P1;HPM_P2
2023/01/18 00:00:09;;;;;;;;;45.00;38.33;;;;;;;;5015828;28;46324;-71
2023/01/18 00:02:34;;;;;;;;;48.67;41.33;;;;;;;;5015349;28;45397;-70
2023/01/18 00:04:59;;;;;;;;;55.67;42.33;;;;;;;;5015073;28;45248;-70
2023/01/18 00:07:25;;;;;;;;;52.00;42.00;;;;;;;;5015878;28;45669;-70
2023/01/18 00:09:51;;;;;;;;;38.00;35.33;;;;;;;;5015530;28;45420;-70
2023/01/18 00:12:17;;;;;;;;;44.00;38.33;;;;;;;;5026580;28;45441;-70
2023/01/18 00:14:42;;;;;;;;;41.67;38.67;;;;;;;;5035427;28;46034;-69
2023/01/18 00:17:07;;;;;;;;;45.33;38.00;;;;;;;;5076042;27;45269;-70
2023/01/18 00:19:33;;;;;;;;;50.33;42.00;;;;;;;;5079082;27;45489;-70
2023/01/18 00:21:58;;;;;;;;;42.33;35.67;;;;;;;;5078157;27;45330;-70
2023/01/18 00:24:23;;;;;;;;;47.00;40.00;;;;;;;;5079768;27;45414;-69
2023/01/18 00:26:48;;;;;;;;;38.33;34.33;;;;;;;;5092321;27;45895;-70
2023/01/18 00:29:14;;;;;;;;;54.67;39.33;;;;;;;;5098071;27;46609;-70
2023/01/18 00:31:40;;;;;;;;;55.33;42.67;;;;;;;;5085377;27;45513;-69
2023/01/18 00:34:05;;;;;;;;;44.00;35.33;;;;;;;;5077747;27;45585;-69
2023/01/18 00:36:30;;;;;;;;;40.33;36.67;;;;;;;;5093553;27;45415;-69
2023/01/18 00:38:57;;;;;;;;;46.00;38.33;;;;;;;;5081258;27;45511;-69
2023/01/18 00:41:22;;;;;;;;;43.33;37.33;;;;;;;;5092459;27;45408;-68
2023/01/18 00:43:48;;;;;;;;;41.33;35.33;;;;;;;;5097244;27;45413;-69
2023/01/18 00:46:14;;;;;;;;;45.67;35.67;;;;;;;;5087784;27;45346;-69
2023/01/18 00:48:40;;;;;;;;;49.67;38.67;;;;;;;;5087485;27;46290;-68
2023/01/18 00:51:09;;;;;;;;;32.67;30.33;;;;;;;;5096820;27;45277;-68
2023/01/18 00:53:36;;;;;;;;;44.33;32.33;;;;;;;;5098514;27;45499;-68
2023/01/18 00:56:02;;;;;;;;;39.33;35.67;;;;;;;;5079918;27;45398;-68
2023/01/18 00:58:27;;;;;;;;;43.00;35.00;;;;;;;;5077278;28;45398;-68
2023/01/18 01:00:53;;;;;;;;;48.00;38.33;;;;;;;;5077461;28;45303;-68
2023/01/18 01:03:19;;;;;;;;;39.00;31.33;;;;;;;;5077225;28;45410;-68
2023/01/18 01:08:28;;;;;;;;;41.00;35.33;;;;;;;;5097765;27;45794;-69
2023/01/18 01:11:03;;;;;;;;;34.00;30.67;;;;;;;;5097530;27;45348;-68
2023/01/18 01:27:09;;;;;;;;;41.33;36.00;;;;;;;;5098319;27;45296;-69
2023/01/18 01:29:34;;;;;;;;;45.00;37.33;;;;;;;;5085804;27;46555;-69
2023/01/18 01:31:59;;;;;;;;;34.67;34.00;;;;;;;;5096839;27;45709;-68
2023/01/18 01:34:25;;;;;;;;;31.00;30.00;;;;;;;;5097757;27;45404;-69
2023/01/18 01:36:51;;;;;;;;;36.67;32.33;;;;;;;;5097555;27;45481;-69
2023/01/18 01:39:16;;;;;;;;;30.00;28.67;;;;;;;;5097119;27;46304;-69
2023/01/18 01:41:41;;;;;;;;;27.67;25.33;;;;;;;;5077282;27;45398;-69
2023/01/18 01:44:18;;;;;;;;;33.00;30.00;;;;;;;;5079828;27;45437;-69
2023/01/18 01:46:52;;;;;;;;;43.67;32.33;;;;;;;;5097653;27;45355;-69
2023/01/18 01:49:17;;;;;;;;;33.33;26.67;;;;;;;;5098050;27;46224;-69
2023/01/18 01:51:47;;;;;;;;;33.67;30.00;;;;;;;;5100780;27;45691;-69
2023/01/18 01:54:20;;;;;;;;;31.67;26.33;;;;;;;;5101082;27;45343;-68
2023/01/18 01:56:47;;;;;;;;;33.00;28.00;;;;;;;;5100416;27;45384;-68
2023/01/18 01:59:13;;;;;;;;;28.00;22.33;;;;;;;;5080062;28;45497;-68
2023/01/18 02:01:42;;;;;;;;;30.33;30.33;;;;;;;;5093592;27;45363;-68
2023/01/18 02:04:08;;;;;;;;;34.33;26.33;;;;;;;;5121303;27;45420;-68
2023/01/18 02:06:35;;;;;;;;;28.67;25.00;;;;;;;;5120823;27;45417;-68
2023/01/18 02:09:02;;;;;;;;;31.00;28.33;;;;;;;;5099664;27;46723;-68
2023/01/18 02:11:28;;;;;;;;;28.33;27.00;;;;;;;;5098831;27;45449;-68
2023/01/18 02:13:55;;;;;;;;;30.67;26.67;;;;;;;;5098673;27;45434;-68
2023/01/18 02:16:26;;;;;;;;;29.67;20.00;;;;;;;;5100746;27;45611;-68
2023/01/18 02:18:51;;;;;;;;;33.67;25.00;;;;;;;;5100762;27;45441;-68
2023/01/18 02:21:37;;;;;;;;;27.67;26.00;;;;;;;;5100469;27;45458;-68
2023/01/18 02:24:05;;;;;;;;;27.00;23.67;;;;;;;;5099930;27;45378;-68
2023/01/18 02:26:30;;;;;;;;;24.67;22.33;;;;;;;;5100516;27;45307;-68
2023/01/18 02:29:04;;;;;;;;;29.00;24.00;;;;;;;;5099091;27;46307;-68
2023/01/18 02:31:48;;;;;;;;;26.00;22.00;;;;;;;;5100253;27;45432;-68
2023/01/18 02:34:25;;;;;;;;;31.00;25.00;;;;;;;;5100401;27;45328;-67
2023/01/18 02:36:53;;;;;;;;;22.33;21.33;;;;;;;;5098108;27;45383;-67
2023/01/18 02:39:22;;;;;;;;;26.67;24.67;;;;;;;;5099931;27;46214;-67
2023/01/18 02:47:24;;;;;;;;;25.67;20.00;;;;;;;;5089085;27;45434;-67
2023/01/18 02:49:49;;;;;;;;;30.00;23.33;;;;;;;;5099845;27;45296;-67
2023/01/18 02:52:37;;;;;;;;;35.00;24.33;;;;;;;;5099585;27;45384;-67
2023/01/18 02:55:02;;;;;;;;;25.67;23.33;;;;;;;;5100163;27;45502;-67
2023/01/18 02:57:28;;;;;;;;;29.33;23.33;;;;;;;;5100269;27;45417;-67
2023/01/18 02:59:55;;;;;;;;;32.67;27.67;;;;;;;;5099063;27;47396;-67
2023/01/18 03:02:23;;;;;;;;;28.67;25.33;;;;;;;;5099763;27;45429;-67
2023/01/18 03:04:55;;;;;;;;;31.00;28.00;;;;;;;;5099735;27;45410;-67
2023/01/18 03:07:38;;;;;;;;;36.33;29.33;;;;;;;;5099849;27;45366;-67
2023/01/18 03:10:06;;;;;;;;;30.00;30.00;;;;;;;;5098980;27;46112;-67
2023/01/18 03:12:46;;;;;;;;;31.67;25.67;;;;;;;;5099587;27;45457;-67
2023/01/18 03:15:29;;;;;;;;;34.00;25.67;;;;;;;;5099563;27;45328;-67
2023/01/18 03:17:56;;;;;;;;;32.00;28.67;;;;;;;;5099726;27;45553;-67
2023/01/18 03:20:24;;;;;;;;;29.00;22.00;;;;;;;;5099202;27;45796;-67
2023/01/18 03:25:35;;;;;;;;;30.00;26.00;;;;;;;;5087871;27;45406;-67
2023/01/18 03:33:45;;;;;;;;;23.33;20.00;;;;;;;;5089991;27;45411;-67
2023/01/18 03:36:15;;;;;;;;;23.67;20.00;;;;;;;;5087515;27;45457;-67
2023/01/18 03:38:41;;;;;;;;;26.67;24.00;;;;;;;;5098908;27;45362;-67
2023/01/18 03:41:08;;;;;;;;;36.67;32.00;;;;;;;;5098151;27;45413;-67
2023/01/18 03:43:36;;;;;;;;;33.33;26.67;;;;;;;;5086325;27;45362;-67
2023/01/18 03:46:02;;;;;;;;;29.67;26.67;;;;;;;;5093091;27;45451;-67
2023/01/18 03:48:27;;;;;;;;;30.67;27.00;;;;;;;;5098082;27;45201;-67
2023/01/18 03:51:18;;;;;;;;;29.33;27.67;;;;;;;;5094143;27;45398;-67
2023/01/18 03:53:43;;;;;;;;;32.00;25.00;;;;;;;;5078661;27;46897;-67
2023/01/18 03:56:17;;;;;;;;;22.00;22.00;;;;;;;;5086990;27;45543;-67
2023/01/18 03:58:44;;;;;;;;;32.00;28.67;;;;;;;;5094430;27;45308;-68
2023/01/18 04:01:09;;;;;;;;;31.00;25.33;;;;;;;;5098064;27;45428;-67
2023/01/18 04:03:36;;;;;;;;;31.00;26.00;;;;;;;;5097948;27;45411;-67
2023/01/18 04:06:03;;;;;;;;;27.00;22.67;;;;;;;;5097904;27;45722;-67
2023/01/18 04:08:28;;;;;;;;;25.67;23.00;;;;;;;;5098267;27;45547;-67
2023/01/18 04:10:53;;;;;;;;;26.33;19.00;;;;;;;;5086891;27;46056;-67
2023/01/18 04:13:18;;;;;;;;;27.67;23.67;;;;;;;;5090519;27;45632;-67
2023/01/18 04:15:44;;;;;;;;;24.33;22.00;;;;;;;;5096532;27;45775;-67
2023/01/18 04:18:09;;;;;;;;;26.00;22.33;;;;;;;;5098621;27;45389;-67
2023/01/18 04:20:34;;;;;;;;;25.00;21.67;;;;;;;;5097895;27;46520;-67
2023/01/18 04:22:59;;;;;;;;;31.00;24.67;;;;;;;;5090270;27;45517;-67
2023/01/18 04:25:25;;;;;;;;;23.67;20.33;;;;;;;;5078457;27;45418;-67
2023/01/18 04:27:50;;;;;;;;;27.00;24.00;;;;;;;;5078243;28;45557;-67
2023/01/18 04:30:16;;;;;;;;;32.67;25.67;;;;;;;;5077256;27;45947;-67
2023/01/18 04:32:41;;;;;;;;;31.33;26.00;;;;;;;;5082916;27;45392;-67
2023/01/18 04:35:07;;;;;;;;;25.33;22.00;;;;;;;;5098894;27;45314;-67
2023/01/18 04:37:32;;;;;;;;;22.00;21.00;;;;;;;;5098693;27;45398;-67
2023/01/18 04:39:58;;;;;;;;;23.33;23.33;;;;;;;;5098014;27;45339;-67
2023/01/18 04:42:24;;;;;;;;;24.67;22.33;;;;;;;;5098223;27;45451;-68
2023/01/18 04:44:49;;;;;;;;;27.00;21.67;;;;;;;;5098428;27;45525;-67
2023/01/18 04:47:15;;;;;;;;;20.33;19.67;;;;;;;;5097501;27;45486;-67
2023/01/18 04:49:40;;;;;;;;;31.67;28.00;;;;;;;;5098178;27;46438;-67
2023/01/18 04:52:06;;;;;;;;;32.67;24.67;;;;;;;;5098658;27;45202;-67
2023/01/18 04:54:31;;;;;;;;;24.67;22.67;;;;;;;;5098419;27;45196;-67
2023/01/18 04:56:56;;;;;;;;;30.33;21.67;;;;;;;;5098084;27;45213;-67
2023/01/18 04:59:21;;;;;;;;;24.33;20.00;;;;;;;;5079460;27;46182;-67
2023/01/18 05:01:47;;;;;;;;;26.00;21.00;;;;;;;;5097906;27;45470;-67
2023/01/18 05:04:12;;;;;;;;;31.67;21.67;;;;;;;;5096727;27;46223;-67
2023/01/18 05:06:37;;;;;;;;;25.00;21.67;;;;;;;;5098114;27;45467;-66
2023/01/18 05:09:02;;;;;;;;;21.33;21.00;;;;;;;;5098246;27;45692;-66
2023/01/18 05:11:27;;;;;;;;;18.33;17.00;;;;;;;;5097637;27;45298;-66
2023/01/18 05:13:53;;;;;;;;;21.67;17.33;;;;;;;;5098041;27;45384;-66
2023/01/18 05:16:19;;;;;;;;;25.00;18.33;;;;;;;;5097781;27;45389;-66
2023/01/18 05:18:44;;;;;;;;;23.67;21.67;;;;;;;;5097021;27;45534;-67
2023/01/18 05:21:10;;;;;;;;;24.33;18.33;;;;;;;;5097618;27;45462;-66
2023/01/18 05:23:35;;;;;;;;;26.00;21.67;;;;;;;;5097602;27;45432;-67
2023/01/18 05:26:00;;;;;;;;;19.00;19.00;;;;;;;;5098536;27;45378;-67
2023/01/18 05:28:26;;;;;;;;;22.00;18.33;;;;;;;;5097438;27;45466;-67
2023/01/18 05:30:52;;;;;;;;;20.67;18.00;;;;;;;;5097368;27;45354;-67
2023/01/18 05:33:17;;;;;;;;;28.67;17.67;;;;;;;;5097734;27;45456;-66
2023/01/18 05:35:48;;;;;;;;;19.67;17.00;;;;;;;;5095990;27;45479;-67
2023/01/18 05:38:14;;;;;;;;;24.00;21.00;;;;;;;;5097442;27;45673;-68
2023/01/18 05:40:41;;;;;;;;;21.00;18.00;;;;;;;;5097117;27;45414;-67
2023/01/18 05:43:06;;;;;;;;;21.33;17.33;;;;;;;;5098010;27;45457;-67
2023/01/18 05:45:31;;;;;;;;;27.00;25.00;;;;;;;;5096194;27;45412;-68
2023/01/18 05:47:56;;;;;;;;;23.67;20.67;;;;;;;;5095579;27;45484;-68
2023/01/18 05:50:21;;;;;;;;;26.67;22.67;;;;;;;;5093395;27;45581;-68
2023/01/18 05:52:47;;;;;;;;;24.67;18.00;;;;;;;;5096277;27;45423;-68
2023/01/18 05:55:12;;;;;;;;;16.33;14.33;;;;;;;;5096775;27;45255;-68
2023/01/18 05:57:37;;;;;;;;;26.00;18.33;;;;;;;;5095309;27;45530;-68
2023/01/18 06:00:03;;;;;;;;;22.00;17.00;;;;;;;;5097544;27;45418;-68
2023/01/18 06:02:29;;;;;;;;;21.33;18.67;;;;;;;;5097105;27;45619;-68
2023/01/18 06:04:54;;;;;;;;;34.00;23.33;;;;;;;;5097080;27;45491;-68
2023/01/18 06:07:19;;;;;;;;;16.33;14.33;;;;;;;;5085066;27;46481;-67
2023/01/18 06:09:44;;;;;;;;;21.67;15.33;;;;;;;;5076567;28;45442;-67
2023/01/18 06:12:10;;;;;;;;;29.00;27.00;;;;;;;;5076747;28;45351;-66
2023/01/18 06:14:35;;;;;;;;;22.00;20.33;;;;;;;;5076955;28;45453;-67
2023/01/18 06:17:00;;;;;;;;;22.33;19.00;;;;;;;;5087015;27;46476;-66
2023/01/18 06:19:25;;;;;;;;;22.00;18.33;;;;;;;;5096988;27;45293;-67
2023/01/18 06:21:53;;;;;;;;;24.00;20.00;;;;;;;;5096866;27;45343;-67
2023/01/18 06:24:18;;;;;;;;;18.33;17.00;;;;;;;;5096513;27;45364;-67
2023/01/18 06:26:43;;;;;;;;;34.33;28.33;;;;;;;;5096724;27;46351;-67
2023/01/18 06:29:08;;;;;;;;;27.67;24.00;;;;;;;;5096643;27;45437;-67
2023/01/18 06:31:34;;;;;;;;;30.33;25.00;;;;;;;;5096571;27;45404;-67
2023/01/18 06:33:59;;;;;;;;;33.67;23.67;;;;;;;;5097447;27;45245;-67
2023/01/18 06:36:24;;;;;;;;;34.00;19.67;;;;;;;;5098127;27;46091;-67
2023/01/18 06:38:49;;;;;;;;;37.33;26.00;;;;;;;;5100205;27;45374;-67
2023/01/18 06:41:15;;;;;;;;;33.33;23.67;;;;;;;;5100283;27;45437;-67
2023/01/18 06:43:40;;;;;;;;;28.00;26.33;;;;;;;;5100324;27;45320;-67
2023/01/18 06:46:08;;;;;;;;;30.33;24.33;;;;;;;;5099668;27;46216;-67
2023/01/18 06:48:33;;;;;;;;;36.67;30.33;;;;;;;;5099827;27;45376;-67
2023/01/18 06:50:58;;;;;;;;;30.33;26.00;;;;;;;;5108012;27;45418;-67
2023/01/18 06:53:24;;;;;;;;;30.33;26.33;;;;;;;;5120787;27;45771;-67
2023/01/18 06:56:00;;;;;;;;;35.33;32.00;;;;;;;;5120593;27;46383;-67
2023/01/18 06:58:26;;;;;;;;;40.33;33.00;;;;;;;;5120506;27;45406;-67
2023/01/18 07:00:55;;;;;;;;;38.00;31.67;;;;;;;;5120498;27;45376;-68
2023/01/18 07:03:20;;;;;;;;;50.00;33.33;;;;;;;;5120641;27;45665;-68
2023/01/18 07:05:46;;;;;;;;;40.67;32.00;;;;;;;;5114070;27;45531;-68
2023/01/18 07:08:12;;;;;;;;;31.67;25.00;;;;;;;;5092500;27;45596;-68
2023/01/18 07:10:37;;;;;;;;;26.33;25.67;;;;;;;;5083744;27;45477;-69
2023/01/18 07:13:02;;;;;;;;;36.00;29.33;;;;;;;;5079895;27;45494;-69
2023/01/18 07:15:27;;;;;;;;;25.67;25.00;;;;;;;;5098863;27;45544;-68
2023/01/18 07:17:53;;;;;;;;;29.00;27.33;;;;;;;;5091831;27;45576;-69
2023/01/18 07:20:18;;;;;;;;;31.33;27.33;;;;;;;;5087169;27;45525;-68
2023/01/18 07:22:44;;;;;;;;;33.00;27.33;;;;;;;;5097948;27;46299;-68
2023/01/18 07:25:12;;;;;;;;;28.67;28.00;;;;;;;;5099971;27;46523;-68
2023/01/18 07:27:37;;;;;;;;;31.00;25.67;;;;;;;;5098860;27;45979;-69
2023/01/18 07:30:02;;;;;;;;;38.00;32.67;;;;;;;;5092972;27;45616;-68
2023/01/18 07:32:28;;;;;;;;;30.33;28.00;;;;;;;;5078617;27;45549;-68
2023/01/18 07:34:53;;;;;;;;;37.67;27.67;;;;;;;;5080400;27;45676;-68
2023/01/18 07:37:18;;;;;;;;;27.00;24.33;;;;;;;;5080086;27;45672;-68
2023/01/18 07:39:43;;;;;;;;;25.33;21.00;;;;;;;;5083727;27;45430;-69
2023/01/18 07:42:10;;;;;;;;;32.33;27.00;;;;;;;;5091197;27;45445;-69
2023/01/18 07:44:36;;;;;;;;;21.67;20.33;;;;;;;;5078732;27;46711;-69
2023/01/18 07:47:01;;;;;;;;;17.33;17.33;;;;;;;;5077227;28;45332;-69
2023/01/18 07:49:26;;;;;;;;;25.67;23.33;;;;;;;;5078650;28;45487;-69
2023/01/18 07:51:52;;;;;;;;;21.33;20.00;;;;;;;;5078880;28;45558;-69
2023/01/18 07:54:17;;;;;;;;;29.67;23.00;;;;;;;;5078600;28;46316;-69
2023/01/18 07:56:43;;;;;;;;;27.67;27.67;;;;;;;;5078512;28;45693;-69
2023/01/18 07:59:08;;;;;;;;;22.67;17.33;;;;;;;;5078797;28;45871;-69
2023/01/18 08:01:33;;;;;;;;;29.67;22.33;;;;;;;;5078634;28;45441;-69
2023/01/18 08:03:58;;;;;;;;;13.00;11.67;;;;;;;;5078194;28;46586;-69
2023/01/18 08:06:25;;;;;;;;;32.00;26.33;;;;;;;;5078557;28;45249;-68
2023/01/18 08:08:50;;;;;;;;;42.67;32.67;;;;;;;;5078498;28;45337;-69
2023/01/18 08:11:16;;;;;;;;;36.00;33.33;;;;;;;;5078683;28;45507;-69
2023/01/18 08:13:41;;;;;;;;;41.00;30.67;;;;;;;;5078045;28;46316;-69
2023/01/18 08:16:08;;;;;;;;;28.00;24.67;;;;;;;;5077496;28;45395;-69
2023/01/18 08:18:33;;;;;;;;;26.00;23.00;;;;;;;;5077452;28;45364;-68
2023/01/18 08:20:58;;;;;;;;;40.33;31.67;;;;;;;;5078324;28;45263;-69
2023/01/18 08:23:24;;;;;;;;;32.67;26.00;;;;;;;;5078003;28;46465;-69
2023/01/18 08:25:49;;;;;;;;;29.33;27.00;;;;;;;;5059719;28;45395;-69
2023/01/18 08:28:14;;;;;;;;;33.67;28.33;;;;;;;;5078333;28;45221;-69
2023/01/18 08:30:41;;;;;;;;;46.33;35.67;;;;;;;;5078314;28;45500;-69
2023/01/18 08:33:07;;;;;;;;;74.67;55.00;;;;;;;;5077474;28;47231;-69
2023/01/18 08:35:33;;;;;;;;;77.00;57.67;;;;;;;;5077777;28;45364;-69
2023/01/18 08:37:59;;;;;;;;;98.50;68.00;;;;;;;;5078031;28;45372;-69
2023/01/18 08:40:25;;;;;;;;;61.33;50.33;;;;;;;;5078140;28;45394;-69
2023/01/18 08:42:54;;;;;;;;;49.33;41.33;;;;;;;;5077655;28;45534;-69
2023/01/18 08:45:19;;;;;;;;;33.67;27.67;;;;;;;;5077683;28;45480;-69
2023/01/18 08:47:44;;;;;;;;;36.67;33.33;;;;;;;;5077541;28;45438;-69
2023/01/18 08:50:10;;;;;;;;;40.00;30.67;;;;;;;;5077974;28;45340;-69
2023/01/18 08:52:35;;;;;;;;;26.67;26.00;;;;;;;;5077696;28;46181;-69
2023/01/18 08:55:04;;;;;;;;;31.00;28.33;;;;;;;;5076737;28;45363;-70
2023/01/18 08:57:29;;;;;;;;;29.00;29.00;;;;;;;;5077574;28;45262;-70
2023/01/18 08:59:55;;;;;;;;;39.00;30.67;;;;;;;;5077388;28;45812;-70
2023/01/18 09:02:20;;;;;;;;;56.00;46.00;;;;;;;;5077528;28;46528;-70
2023/01/18 09:04:47;;;;;;;;;31.00;27.33;;;;;;;;5077373;28;45465;-70
2023/01/18 09:07:12;;;;;;;;;35.67;27.67;;;;;;;;5077419;28;45377;-69
2023/01/18 09:09:38;;;;;;;;;40.33;32.00;;;;;;;;5077758;28;45456;-70
2023/01/18 09:12:03;;;;;;;;;40.00;30.67;;;;;;;;5077432;28;45538;-71
2023/01/18 09:14:28;;;;;;;;;46.67;37.00;;;;;;;;5077205;28;45227;-70
2023/01/18 09:16:53;;;;;;;;;38.67;36.00;;;;;;;;5077570;28;45396;-70
2023/01/18 09:19:19;;;;;;;;;27.33;23.33;;;;;;;;5077486;28;45375;-70
2023/01/18 09:21:45;;;;;;;;;38.00;28.67;;;;;;;;5077191;28;46314;-70
2023/01/18 09:24:11;;;;;;;;;33.00;30.00;;;;;;;;5077259;28;45386;-70
2023/01/18 09:26:37;;;;;;;;;39.33;30.33;;;;;;;;5077294;28;45473;-71
2023/01/18 09:29:02;;;;;;;;;34.00;27.67;;;;;;;;5077482;28;45340;-71
2023/01/18 09:31:28;;;;;;;;;37.67;32.00;;;;;;;;5076855;28;46461;-70
2023/01/18 09:33:56;;;;;;;;;29.33;26.00;;;;;;;;5076984;28;45336;-68
2023/01/18 09:36:25;;;;;;;;;33.00;28.33;;;;;;;;5077295;28;45230;-69
2023/01/18 09:38:51;;;;;;;;;50.00;38.67;;;;;;;;5077285;28;45454;-69
2023/01/18 09:41:26;;;;;;;;;33.33;31.00;;;;;;;;5076867;28;46144;-68
2023/01/18 09:43:54;;;;;;;;;32.67;30.67;;;;;;;;5076880;28;45440;-68
2023/01/18 09:46:20;;;;;;;;;64.67;50.67;;;;;;;;5076897;28;45308;-68
2023/01/18 09:48:53;;;;;;;;;33.33;29.00;;;;;;;;5076996;28;45470;-69
2023/01/18 09:51:21;;;;;;;;;25.00;22.00;;;;;;;;5076744;28;45626;-71
2023/01/18 09:54:05;;;;;;;;;35.33;23.67;;;;;;;;5076713;28;45196;-71
2023/01/18 10:10:54;;;;;;;;;25.67;24.67;;;;;8.62;58.69;99487.28;5128398;27;45780;-73
2023/01/18 10:13:55;;;;;;;;;31.67;25.67;;;;;8.05;58.26;99455.97;5112252;27;45517;-73
2023/01/18 10:16:21;;;;;;;;;26.33;23.67;;;;;7.65;58.07;99488.69;5111795;27;45807;-76
2023/01/18 10:18:50;;;;;;;;;29.33;26.00;;;;;6.74;58.91;99452.13;5112246;27;45762;-70
2023/01/18 10:21:46;;;;;;;;;24.00;22.67;;;;;6.39;60.57;99500.97;5112121;27;47696;-75
2023/01/18 10:24:38;;;;;;;;;33.67;29.33;;;;;5.83;62.37;99499.69;5112332;27;45372;-70
2023/01/18 10:27:35;;;;;;;;;32.33;28.33;;;;;5.49;63.94;99516.13;5112364;27;45447;-72
2023/01/18 10:30:36;;;;;;;;;29.67;26.33;;;;;5.21;65.47;99518.47;5112379;27;45430;-71
2023/01/18 10:33:16;;;;;;;;;46.00;33.67;;;;;4.99;66.08;99503.25;5110674;27;45709;-72
2023/01/18 10:35:49;;;;;;;;;28.33;24.67;;;;;4.95;66.87;99522.47;5111643;27;45491;-71
2023/01/18 10:38:19;;;;;;;;;27.67;27.33;;;;;4.96;67.58;99499.84;5112187;27;45408;-72
2023/01/18 10:40:52;;;;;;;;;32.33;30.33;;;;;5.20;67.91;99501.09;5112079;27;45475;-72
2023/01/18 10:43:22;;;;;;;;;32.00;28.00;;;;;5.47;68.70;99512.69;5111827;27;46357;-71
2023/01/18 10:45:47;;;;;;;;;21.33;20.33;;;;;5.55;66.26;99508.16;5111806;27;45870;-71
2023/01/18 10:48:15;;;;;;;;;26.00;24.00;;;;;5.67;66.13;99516.63;5111860;27;45953;-70
2023/01/18 10:50:45;;;;;;;;;25.67;21.00;;;;;5.70;66.78;99514.78;5108372;27;45845;-70
2023/01/18 10:53:23;;;;;;;;;31.00;26.67;;;;;5.73;66.77;99513.84;5109004;27;45727;-70
2023/01/18 10:55:58;;;;;;;;;22.00;20.00;;;;;5.73;65.60;99514.72;5111526;27;45402;-70
2023/01/18 10:58:30;;;;;;;;;31.33;25.33;;;;;5.55;65.84;99486.44;5111366;27;45418;-70
2023/01/18 11:00:57;;;;;;;;;17.33;17.33;;;;;5.67;65.53;99514.84;5110401;27;45350;-70
2023/01/18 11:03:25;;;;;;;;;26.67;21.67;;;;;5.64;66.81;99508.84;5111283;27;46574;-70
2023/01/18 11:05:51;;;;;;;;;27.00;20.67;;;;;5.60;67.18;99507.19;5111141;27;45433;-70
2023/01/18 11:08:17;;;;;;;;;20.00;19.00;;;;;5.48;66.84;99508.34;5111415;27;45495;-71
2023/01/18 11:10:42;;;;;;;;;28.00;23.00;;;;;5.21;67.09;99494.97;5103702;27;45553;-70
2023/01/18 11:13:25;;;;;;;;;21.33;19.00;;;;;5.19;67.50;99517.66;5096078;27;46334;-70
2023/01/18 11:16:16;;;;;;;;;25.00;24.00;;;;;5.06;67.31;99506.59;5097110;27;45542;-71
2023/01/18 11:18:54;;;;;;;;;26.33;20.00;;;;;4.96;67.78;99511.13;5097386;27;45336;-70
2023/01/18 11:21:20;;;;;;;;;20.67;18.33;;;;;4.88;68.40;99507.84;5097504;27;45476;-70
2023/01/18 11:23:45;;;;;;;;;25.00;18.33;;;;;4.84;68.76;99506.16;5097293;27;46184;-70
2023/01/18 11:26:11;;;;;;;;;20.00;18.33;;;;;4.83;68.99;99512.25;5097257;27;45388;-71
2023/01/18 11:28:47;;;;;;;;;18.67;16.33;;;;;4.81;69.42;99511.44;5097530;27;45830;-71
2023/01/18 11:31:14;;;;;;;;;24.00;20.67;;;;;4.74;70.31;99497.66;5097529;27;45738;-71
2023/01/18 11:33:53;;;;;;;;;28.00;21.00;;;;;4.82;70.42;99513.16;5096895;27;46625;-71
2023/01/18 11:36:31;;;;;;;;;21.00;16.67;;;;;4.65;70.86;99472.63;5097248;27;45437;-70
2023/01/18 11:39:16;;;;;;;;;18.33;15.00;;;;;4.85;70.95;99495.72;5097396;27;45754;-70
2023/01/18 11:41:42;;;;;;;;;15.33;13.00;;;;;4.91;70.31;99505.16;5097229;27;45657;-70
2023/01/18 11:44:21;;;;;;;;;19.00;14.33;;;;;4.83;70.72;99492.25;5096871;27;45706;-70
2023/01/18 11:46:51;;;;;;;;;19.00;16.33;;;;;4.93;70.27;99511.19;5106277;27;45443;-70
2023/01/18 11:49:22;;;;;;;;;18.33;11.67;;;;;4.98;70.99;99516.31;5117721;27;45531;-70
2023/01/18 11:51:56;;;;;;;;;15.67;15.00;;;;;4.95;71.00;99513.78;5117913;27;45390;-70
2023/01/18 11:54:29;;;;;;;;;17.33;14.67;;;;;5.06;70.15;99514.41;5116024;27;47392;-70
2023/01/18 11:57:01;;;;;;;;;15.33;13.33;;;;;5.04;70.68;99505.78;5098380;27;45478;-70
2023/01/18 11:59:29;;;;;;;;;19.00;14.00;;;;;5.13;70.61;99517.78;5090321;27;45951;-71
2023/01/18 12:02:17;;;;;;;;;16.00;14.00;;;;;5.16;70.31;99520.31;5093264;27;45867;-71
2023/01/18 12:04:58;;;;;;;;;19.00;14.00;;;;;5.20;70.15;99519.38;5084755;27;46604;-70
2023/01/18 12:07:38;;;;;;;;;17.67;11.33;;;;;5.23;70.38;99520.16;5096777;27;45415;-70
2023/01/18 12:10:09;;;;;;;;;10.33;10.33;;;;;5.21;70.18;99511.50;5096608;27;45503;-71
2023/01/18 12:12:47;;;;;;;;;13.67;12.67;;;;;5.33;70.28;99518.22;5097448;27;45547;-70
2023/01/18 12:15:15;;;;;;;;;11.00;9.67;;;;;5.38;70.20;99520.72;5093210;27;45638;-70
2023/01/18 12:18:05;;;;;;;;;10.33;10.33;;;;;5.43;70.18;99516.25;5088722;27;45395;-69
2023/01/18 12:20:57;;;;;;;;;13.00;10.33;;;;;5.45;69.97;99508.41;5086913;27;45411;-69
2023/01/18 12:23:28;;;;;;;;;9.00;9.00;;;;;5.55;69.61;99516.00;5091871;27;45486;-70
2023/01/18 12:26:09;;;;;;;;;10.67;9.00;;;;;5.57;69.54;99508.97;5094886;27;47334;-70
2023/01/18 12:29:15;;;;;;;;;12.67;10.67;;;;;5.62;69.26;99515.84;5094076;27;45778;-70
2023/01/18 12:31:46;;;;;;;;;9.67;9.33;;;;;5.65;69.09;99515.78;5090710;27;45561;-69
2023/01/18 12:34:25;;;;;;;;;12.00;9.33;;;;;5.58;69.40;99494.19;5094923;27;45434;-68
2023/01/18 12:37:06;;;;;;;;;11.00;9.33;;;;;5.72;68.90;99513.00;5093244;27;47455;-68
2023/01/18 12:39:50;;;;;;;;;10.00;9.00;;;;;5.75;69.19;99518.16;5092820;27;45722;-68
2023/01/18 12:42:37;;;;;;;;;8.00;8.00;;;;;5.69;68.75;99499.16;5080793;27;45399;-68
2023/01/18 12:45:19;;;;;;;;;9.33;8.67;;;;;5.73;68.67;99501.66;5092393;27;45608;-68
2023/01/18 12:48:11;;;;;;;;;13.67;9.00;;;;;5.87;68.69;99522.25;5090446;27;45495;-70
2023/01/18 12:50:39;;;;;;;;;9.33;9.33;;;;;5.92;69.01;99522.13;5078284;27;46801;-68
2023/01/18 12:53:16;;;;;;;;;12.33;8.00;;;;;5.97;68.57;99516.78;5094264;27;45443;-69
2023/01/18 12:55:46;;;;;;;;;13.00;10.00;;;;;5.97;68.09;99520.31;5098122;27;45505;-69
2023/01/18 12:58:19;;;;;;;;;11.00;8.00;;;;;6.08;68.23;99514.81;5097662;27;45387;-69
2023/01/18 13:00:50;;;;;;;;;9.33;8.33;;;;;6.12;67.84;99520.84;5097791;27;45437;-68
2023/01/18 13:03:22;;;;;;;;;8.00;5.67;;;;;6.16;67.90;99518.09;5097732;27;45395;-68
2023/01/18 13:05:58;;;;;;;;;11.33;9.33;;;;;6.20;67.66;99518.88;5089728;27;45327;-68
2023/01/18 13:08:37;;;;;;;;;18.00;17.33;;;;;6.25;67.66;99517.88;5076887;27;46532;-68
2023/01/18 13:11:13;;;;;;;;;13.67;9.00;;;;;6.22;67.17;99509.25;5096923;27;45709;-68
2023/01/18 13:13:40;;;;;;;;;14.33;10.00;;;;;6.30;67.58;99527.34;5097732;27;45258;-69
2023/01/18 13:16:08;;;;;;;;;9.33;9.33;;;;;6.34;67.26;99532.47;5096616;27;45358;-69
2023/01/18 13:18:48;;;;;;;;;10.00;8.67;;;;;6.30;67.56;99516.91;5097081;27;46256;-68
2023/01/18 13:22:04;;;;;;;;;9.00;9.00;;;;;6.37;67.43;99527.16;5097279;27;45390;-69
2023/01/18 13:24:45;;;;;;;;;9.33;7.00;;;;;6.45;66.44;99535.66;5004557;28;45551;-68
2023/01/18 13:27:13;;;;;;;;;9.00;7.67;;;;;6.39;66.34;99540.19;5014421;28;45613;-68
2023/01/18 13:29:39;;;;;;;;;12.33;9.00;;;;;6.40;66.39;99541.91;5014343;28;45538;-68
2023/01/18 13:32:20;;;;;;;;;7.00;7.00;;;;;6.45;66.16;99545.28;5014457;28;45394;-68
2023/01/18 13:34:55;;;;;;;;;9.33;8.00;;;;;6.50;65.56;99553.84;5014129;28;45473;-68
2023/01/18 13:37:41;;;;;;;;;7.33;4.00;;;;;6.50;66.01;99550.38;5014898;28;45853;-68
2023/01/18 13:40:33;;;;;;;;;8.00;3.00;;;;;6.44;66.21;99543.56;5013226;28;46731;-68
2023/01/18 13:42:59;;;;;;;;;4.67;4.67;;;;;6.44;65.63;99543.56;5014385;28;45374;-68
2023/01/18 13:45:27;;;;;;;;;8.33;7.00;;;;;6.38;65.04;99528.03;5014374;28;45548;-69
2023/01/18 13:47:54;;;;;;;;;11.33;10.00;;;;;6.49;65.72;99549.53;5014430;28;45781;-68
2023/01/18 13:50:34;;;;;;;;;8.33;5.00;;;;;6.53;66.20;99551.16;5014198;28;46158;-69
2023/01/18 13:53:11;;;;;;;;;9.00;7.00;;;;;6.53;65.73;99550.31;5013579;28;45518;-68
2023/01/18 13:55:37;;;;;;;;;10.67;10.00;;;;;6.56;65.78;99555.44;5013798;28;45534;-67
2023/01/18 13:58:03;;;;;;;;;8.33;7.33;;;;;6.28;65.57;99512.56;5009478;28;45517;-67
2023/01/18 14:00:30;;;;;;;;;8.67;8.00;;;;;6.50;65.80;99559.06;5060608;27;45779;-69
2023/01/18 14:03:06;;;;;;;;;14.33;9.67;;;;;6.27;66.06;99526.53;5084164;27;45604;-68
2023/01/18 14:05:42;;;;;;;;;11.00;10.00;;;;;6.49;65.98;99553.88;5086532;27;45649;-69
2023/01/18 14:08:19;;;;;;;;;12.00;10.33;;;;;6.48;65.05;99554.78;5090789;27;45475;-69
2023/01/18 14:10:52;;;;;;;;;11.33;8.00;;;;;6.41;65.60;99549.72;5095021;27;46213;-70
2023/01/18 14:13:43;;;;;;;;;12.00;11.00;;;;;6.45;66.02;99568.81;5086334;27;45465;-70
2023/01/18 14:16:16;;;;;;;;;9.67;7.00;;;;;6.45;66.56;99574.88;5093563;27;45437;-71